Sahiwal Weather



Sahiwal's Current Weather

Temprature 40.44o broken clouds

broken clouds

Rain: 0 %

Min Temprature40.44o
Max Temprature40.44o
Humidity31
Wind Speed3.45 m/h
Sun Rise05:20:15
Sun Set19:07:38
Current Time: 24-Jul-2021 15:35:29
Lat/Lon: 30.6667, 73.1




Sahiwal's Geo Location



Sahiwal's Weather Forecast

Time Overall Temp Min Temp Max Temp Humidity Wind Speed Rain
24-Jul-2021 (Sat)
17:00:00 broken clouds 40.260 40.260 40.260 32 3.51 m/h 0 %
20:00:00 broken clouds 39.320 37.440 39.320 34 3.05 m/h 0 %
23:00:00 scattered clouds 37.410 35.990 37.410 40 2.71 m/h 0 %
25-Jul-2021 (Sun)
02:00:00 clear sky 34.800 34.800 34.800 47 2.52 m/h 0 %
05:00:00 few clouds 33.930 33.930 33.930 50 2.29 m/h 0 %
08:00:00 broken clouds 37.650 37.650 37.650 40 2.88 m/h 0 %
11:00:00 scattered clouds 41.750 41.750 41.750 29 2.19 m/h 0 %
14:00:00 scattered clouds 44.440 44.440 44.440 23 2.14 m/h 0 %
17:00:00 broken clouds 42.920 42.920 42.920 26 4.32 m/h 0 %
20:00:00 few clouds 40.010 40.010 40.010 31 3.29 m/h 0 %
23:00:00 broken clouds 38.230 38.230 38.230 37 4.11 m/h 0 %
26-Jul-2021 (Mon)
02:00:00 overcast clouds 36.690 36.690 36.690 43 4.23 m/h 0 %
05:00:00 broken clouds 35.520 35.520 35.520 44 3.17 m/h 0 %
08:00:00 broken clouds 37.780 37.780 37.780 39 4.82 m/h 0 %
11:00:00 overcast clouds 42.170 42.170 42.170 29 4.32 m/h 0 %
14:00:00 overcast clouds 43.900 43.900 43.900 26 5.67 m/h 0 %
17:00:00 overcast clouds 40.850 40.850 40.850 31 6.97 m/h 0 %
20:00:00 overcast clouds 38.080 38.080 38.080 37 6.94 m/h 0 %
23:00:00 overcast clouds 37.330 37.330 37.330 38 6.47 m/h 0 %
27-Jul-2021 (Tue)
02:00:00 overcast clouds 35.020 35.020 35.020 44 7.43 m/h 0 %
05:00:00 overcast clouds 31.880 31.880 31.880 59 7.23 m/h 0 %
08:00:00 overcast clouds 32.590 32.590 32.590 56 6.88 m/h 0 %
11:00:00 broken clouds 37.260 37.260 37.260 40 6.11 m/h 0 %
14:00:00 few clouds 39.430 39.430 39.430 35 7.18 m/h 0 %
17:00:00 scattered clouds 38.420 38.420 38.420 37 6.34 m/h 0 %
20:00:00 overcast clouds 35.050 35.050 35.050 45 7.4 m/h 0 %
23:00:00 overcast clouds 32.910 32.910 32.910 53 6.42 m/h 0 %
28-Jul-2021 (Wed)
02:00:00 overcast clouds 31.100 31.100 31.100 61 5.7 m/h 0 %
05:00:00 broken clouds 30.000 30.000 30.000 66 4.31 m/h 0 %
08:00:00 overcast clouds 31.390 31.390 31.390 61 5.03 m/h 0 %
11:00:00 overcast clouds 33.850 33.850 33.850 52 3.81 m/h 0 %
14:00:00 overcast clouds 34.320 34.320 34.320 52 6.31 m/h 0 %
17:00:00 overcast clouds 33.100 33.100 33.100 58 5.92 m/h 0 %
20:00:00 overcast clouds 29.800 29.800 29.800 69 5.48 m/h 0 %
23:00:00 overcast clouds 28.940 28.940 28.940 75 4.07 m/h 0 %
29-Jul-2021 (Thu)
02:00:00 overcast clouds 29.220 29.220 29.220 73 3.37 m/h 0 %
05:00:00 overcast clouds 28.600 28.600 28.600 76 2.78 m/h 0 %
08:00:00 broken clouds 31.930 31.930 31.930 61 2.52 m/h 0 %
11:00:00 broken clouds 37.190 37.190 37.190 43 1.57 m/h 0 %
14:00:00 light rain 36.910 36.910 36.910 42 2.49 m/h 77 %

Famous Cities (60)